sensor_id;sensor_type;location;lat;lon;timestamp;P1;durP1;ratioP1;P2;durP2;ratioP2
20865;SDS011;10593;48.398;10.698;2022-11-20T00:01:16;2.40;;;2.20;;
20865;SDS011;10593;48.398;10.698;2022-11-20T00:03:48;2.50;;;2.20;;
20865;SDS011;10593;48.398;10.698;2022-11-20T00:06:16;2.27;;;2.17;;
20865;SDS011;10593;48.398;10.698;2022-11-20T00:08:44;2.57;;;2.37;;
20865;SDS011;10593;48.398;10.698;2022-11-20T00:11:18;2.73;;;2.43;;
20865;SDS011;10593;48.398;10.698;2022-11-20T00:13:47;2.40;;;2.30;;
20865;SDS011;10593;48.398;10.698;2022-11-20T00:16:17;3.03;;;2.70;;
20865;SDS011;10593;48.398;10.698;2022-11-20T00:18:46;2.70;;;2.27;;
20865;SDS011;10593;48.398;10.698;2022-11-20T00:21:13;2.60;;;2.40;;
20865;SDS011;10593;48.398;10.698;2022-11-20T00:23:41;2.73;;;2.53;;
20865;SDS011;10593;48.398;10.698;2022-11-20T00:29:49;2.50;;;2.30;;
20865;SDS011;10593;48.398;10.698;2022-11-20T00:32:15;2.40;;;2.20;;
20865;SDS011;10593;48.398;10.698;2022-11-20T00:34:40;2.43;;;2.33;;
20865;SDS011;10593;48.398;10.698;2022-11-20T00:37:06;2.27;;;2.17;;
20865;SDS011;10593;48.398;10.698;2022-11-20T00:39:32;2.23;;;2.13;;
20865;SDS011;10593;48.398;10.698;2022-11-20T00:41:57;3.70;;;2.53;;
20865;SDS011;10593;48.398;10.698;2022-11-20T00:44:23;2.60;;;2.40;;
20865;SDS011;10593;48.398;10.698;2022-11-20T00:46:49;2.07;;;1.97;;
20865;SDS011;10593;48.398;10.698;2022-11-20T00:49:14;2.40;;;2.30;;
20865;SDS011;10593;48.398;10.698;2022-11-20T00:51:40;2.17;;;2.07;;
20865;SDS011;10593;48.398;10.698;2022-11-20T00:54:06;2.30;;;2.20;;
20865;SDS011;10593;48.398;10.698;2022-11-20T00:56:31;2.23;;;2.13;;
20865;SDS011;10593;48.398;10.698;2022-11-20T00:58:58;2.50;;;2.30;;
20865;SDS011;10593;48.398;10.698;2022-11-20T01:01:26;2.17;;;2.07;;
20865;SDS011;10593;48.398;10.698;2022-11-20T01:03:55;2.60;;;2.40;;
20865;SDS011;10593;48.398;10.698;2022-11-20T01:06:24;2.43;;;2.30;;
20865;SDS011;10593;48.398;10.698;2022-11-20T01:08:53;2.53;;;2.37;;
20865;SDS011;10593;48.398;10.698;2022-11-20T01:11:23;2.33;;;2.13;;
20865;SDS011;10593;48.398;10.698;2022-11-20T01:13:55;2.57;;;2.37;;
20865;SDS011;10593;48.398;10.698;2022-11-20T01:16:32;2.20;;;2.10;;
20865;SDS011;10593;48.398;10.698;2022-11-20T01:19:01;2.00;;;1.90;;
20865;SDS011;10593;48.398;10.698;2022-11-20T01:21:34;3.20;;;2.30;;
20865;SDS011;10593;48.398;10.698;2022-11-20T01:24:03;2.07;;;1.97;;
20865;SDS011;10593;48.398;10.698;2022-11-20T01:26:33;2.30;;;2.20;;
20865;SDS011;10593;48.398;10.698;2022-11-20T01:29:03;2.53;;;2.43;;
20865;SDS011;10593;48.398;10.698;2022-11-20T01:31:34;2.53;;;2.40;;
20865;SDS011;10593;48.398;10.698;2022-11-20T01:34:02;2.57;;;2.37;;
20865;SDS011;10593;48.398;10.698;2022-11-20T01:36:40;2.70;;;2.50;;
20865;SDS011;10593;48.398;10.698;2022-11-20T01:39:10;2.60;;;2.40;;
20865;SDS011;10593;48.398;10.698;2022-11-20T01:41:43;4.07;;;2.40;;
20865;SDS011;10593;48.398;10.698;2022-11-20T01:44:48;2.30;;;2.17;;
20865;SDS011;10593;48.398;10.698;2022-11-20T01:50:06;2.47;;;2.23;;
20865;SDS011;10593;48.398;10.698;2022-11-20T01:52:53;2.50;;;2.30;;
20865;SDS011;10593;48.398;10.698;2022-11-20T01:55:26;2.60;;;2.40;;
20865;SDS011;10593;48.398;10.698;2022-11-20T01:57:58;2.40;;;2.30;;
20865;SDS011;10593;48.398;10.698;2022-11-20T02:00:26;2.47;;;2.27;;
20865;SDS011;10593;48.398;10.698;2022-11-20T02:02:53;2.70;;;2.50;;
20865;SDS011;10593;48.398;10.698;2022-11-20T02:05:28;2.33;;;2.20;;
20865;SDS011;10593;48.398;10.698;2022-11-20T02:08:01;2.30;;;2.20;;
20865;SDS011;10593;48.398;10.698;2022-11-20T02:10:30;2.40;;;2.20;;
20865;SDS011;10593;48.398;10.698;2022-11-20T02:12:57;2.53;;;2.33;;
20865;SDS011;10593;48.398;10.698;2022-11-20T02:15:42;2.50;;;2.30;;
20865;SDS011;10593;48.398;10.698;2022-11-20T02:18:09;2.47;;;2.27;;
20865;SDS011;10593;48.398;10.698;2022-11-20T02:20:38;2.60;;;2.30;;
20865;SDS011;10593;48.398;10.698;2022-11-20T02:25:56;2.30;;;2.20;;
20865;SDS011;10593;48.398;10.698;2022-11-20T02:28:25;2.20;;;2.10;;
20865;SDS011;10593;48.398;10.698;2022-11-20T02:30:52;2.40;;;2.30;;
20865;SDS011;10593;48.398;10.698;2022-11-20T02:33:18;2.10;;;2.00;;
20865;SDS011;10593;48.398;10.698;2022-11-20T02:35:45;2.30;;;2.10;;
20865;SDS011;10593;48.398;10.698;2022-11-20T02:38:12;2.23;;;2.13;;
20865;SDS011;10593;48.398;10.698;2022-11-20T02:40:39;2.63;;;2.43;;
20865;SDS011;10593;48.398;10.698;2022-11-20T02:43:05;2.23;;;2.13;;
20865;SDS011;10593;48.398;10.698;2022-11-20T02:45:32;2.40;;;2.20;;
20865;SDS011;10593;48.398;10.698;2022-11-20T02:47:58;2.50;;;2.30;;
20865;SDS011;10593;48.398;10.698;2022-11-20T02:50:23;2.90;;;2.70;;
20865;SDS011;10593;48.398;10.698;2022-11-20T02:52:50;2.40;;;2.20;;
20865;SDS011;10593;48.398;10.698;2022-11-20T02:55:16;2.17;;;2.07;;
20865;SDS011;10593;48.398;10.698;2022-11-20T02:57:41;2.40;;;2.30;;
20865;SDS011;10593;48.398;10.698;2022-11-20T03:00:07;2.40;;;2.20;;
20865;SDS011;10593;48.398;10.698;2022-11-20T03:02:34;2.40;;;2.20;;
20865;SDS011;10593;48.398;10.698;2022-11-20T03:05:00;2.70;;;2.50;;
20865;SDS011;10593;48.398;10.698;2022-11-20T03:07:25;2.37;;;2.27;;
20865;SDS011;10593;48.398;10.698;2022-11-20T03:09:51;2.47;;;2.27;;
20865;SDS011;10593;48.398;10.698;2022-11-20T03:12:17;2.27;;;2.00;;
20865;SDS011;10593;48.398;10.698;2022-11-20T03:14:42;2.40;;;2.20;;
20865;SDS011;10593;48.398;10.698;2022-11-20T03:17:08;2.63;;;2.43;;
20865;SDS011;10593;48.398;10.698;2022-11-20T03:19:34;2.57;;;2.37;;
20865;SDS011;10593;48.398;10.698;2022-11-20T03:22:00;2.10;;;1.90;;
20865;SDS011;10593;48.398;10.698;2022-11-20T03:24:26;2.20;;;2.10;;
20865;SDS011;10593;48.398;10.698;2022-11-20T03:26:52;2.60;;;2.40;;
20865;SDS011;10593;48.398;10.698;2022-11-20T03:29:17;2.30;;;2.10;;
20865;SDS011;10593;48.398;10.698;2022-11-20T03:31:43;2.17;;;2.07;;
20865;SDS011;10593;48.398;10.698;2022-11-20T03:34:09;2.50;;;2.30;;
20865;SDS011;10593;48.398;10.698;2022-11-20T03:36:40;2.30;;;2.20;;
20865;SDS011;10593;48.398;10.698;2022-11-20T03:39:07;2.30;;;2.13;;
20865;SDS011;10593;48.398;10.698;2022-11-20T03:41:38;2.73;;;2.30;;
20865;SDS011;10593;48.398;10.698;2022-11-20T03:44:06;2.30;;;2.20;;
20865;SDS011;10593;48.398;10.698;2022-11-20T03:46:35;2.30;;;2.10;;
20865;SDS011;10593;48.398;10.698;2022-11-20T03:49:01;2.53;;;2.33;;
20865;SDS011;10593;48.398;10.698;2022-11-20T03:51:29;2.33;;;2.13;;
20865;SDS011;10593;48.398;10.698;2022-11-20T03:54:01;2.30;;;2.20;;
20865;SDS011;10593;48.398;10.698;2022-11-20T03:56:30;2.23;;;2.13;;
20865;SDS011;10593;48.398;10.698;2022-11-20T03:58:59;2.83;;;2.20;;
20865;SDS011;10593;48.398;10.698;2022-11-20T04:01:26;2.60;;;2.30;;
20865;SDS011;10593;48.398;10.698;2022-11-20T04:03:56;2.20;;;2.10;;
20865;SDS011;10593;48.398;10.698;2022-11-20T04:06:43;3.93;;;2.43;;
20865;SDS011;10593;48.398;10.698;2022-11-20T04:09:08;2.10;;;2.00;;
20865;SDS011;10593;48.398;10.698;2022-11-20T04:11:34;2.30;;;2.20;;
20865;SDS011;10593;48.398;10.698;2022-11-20T04:14:05;2.17;;;2.07;;
20865;SDS011;10593;48.398;10.698;2022-11-20T04:16:38;3.07;;;2.03;;
20865;SDS011;10593;48.398;10.698;2022-11-20T04:19:04;2.00;;;1.90;;
20865;SDS011;10593;48.398;10.698;2022-11-20T04:21:36;2.67;;;2.10;;
20865;SDS011;10593;48.398;10.698;2022-11-20T04:24:02;2.30;;;2.20;;
20865;SDS011;10593;48.398;10.698;2022-11-20T04:26:29;1.90;;;1.80;;
20865;SDS011;10593;48.398;10.698;2022-11-20T04:28:56;2.40;;;2.20;;
20865;SDS011;10593;48.398;10.698;2022-11-20T04:31:24;2.40;;;2.20;;
20865;SDS011;10593;48.398;10.698;2022-11-20T04:33:53;2.50;;;2.30;;
20865;SDS011;10593;48.398;10.698;2022-11-20T04:36:20;2.60;;;2.40;;
20865;SDS011;10593;48.398;10.698;2022-11-20T04:38:52;2.20;;;2.10;;
20865;SDS011;10593;48.398;10.698;2022-11-20T04:41:25;4.33;;;1.97;;
20865;SDS011;10593;48.398;10.698;2022-11-20T04:43:55;2.30;;;2.20;;
20865;SDS011;10593;48.398;10.698;2022-11-20T04:46:26;2.27;;;2.07;;
20865;SDS011;10593;48.398;10.698;2022-11-20T04:48:53;2.87;;;2.10;;
20865;SDS011;10593;48.398;10.698;2022-11-20T04:51:19;2.60;;;2.23;;
20865;SDS011;10593;48.398;10.698;2022-11-20T04:53:44;2.13;;;2.03;;
20865;SDS011;10593;48.398;10.698;2022-11-20T04:56:11;2.00;;;1.90;;
20865;SDS011;10593;48.398;10.698;2022-11-20T04:58:37;2.97;;;2.30;;
20865;SDS011;10593;48.398;10.698;2022-11-20T05:01:05;2.20;;;2.00;;
20865;SDS011;10593;48.398;10.698;2022-11-20T05:03:34;1.93;;;1.73;;
20865;SDS011;10593;48.398;10.698;2022-11-20T05:06:00;2.00;;;1.90;;
20865;SDS011;10593;48.398;10.698;2022-11-20T05:08:28;2.40;;;2.30;;
20865;SDS011;10593;48.398;10.698;2022-11-20T05:10:59;2.47;;;2.27;;
20865;SDS011;10593;48.398;10.698;2022-11-20T05:13:30;2.30;;;2.10;;
20865;SDS011;10593;48.398;10.698;2022-11-20T05:16:00;2.30;;;2.20;;
20865;SDS011;10593;48.398;10.698;2022-11-20T05:18:28;2.20;;;2.10;;
20865;SDS011;10593;48.398;10.698;2022-11-20T05:20:57;2.80;;;2.20;;
20865;SDS011;10593;48.398;10.698;2022-11-20T05:23:24;2.33;;;2.00;;
20865;SDS011;10593;48.398;10.698;2022-11-20T05:25:53;2.10;;;2.00;;
20865;SDS011;10593;48.398;10.698;2022-11-20T05:28:21;1.97;;;1.87;;
20865;SDS011;10593;48.398;10.698;2022-11-20T05:30:49;2.10;;;2.00;;
20865;SDS011;10593;48.398;10.698;2022-11-20T05:33:15;1.90;;;1.80;;
20865;SDS011;10593;48.398;10.698;2022-11-20T05:35:41;2.00;;;1.90;;
20865;SDS011;10593;48.398;10.698;2022-11-20T05:38:07;1.77;;;1.67;;
20865;SDS011;10593;48.398;10.698;2022-11-20T05:40:33;1.60;;;1.50;;
20865;SDS011;10593;48.398;10.698;2022-11-20T05:42:59;2.07;;;1.97;;
20865;SDS011;10593;48.398;10.698;2022-11-20T05:45:26;1.87;;;1.77;;
20865;SDS011;10593;48.398;10.698;2022-11-20T05:47:52;1.90;;;1.80;;
20865;SDS011;10593;48.398;10.698;2022-11-20T05:50:18;2.10;;;1.90;;
20865;SDS011;10593;48.398;10.698;2022-11-20T05:52:44;1.90;;;1.80;;
20865;SDS011;10593;48.398;10.698;2022-11-20T05:55:09;1.93;;;1.83;;
20865;SDS011;10593;48.398;10.698;2022-11-20T05:57:35;2.37;;;2.10;;
20865;SDS011;10593;48.398;10.698;2022-11-20T06:00:01;1.70;;;1.60;;
20865;SDS011;10593;48.398;10.698;2022-11-20T06:02:28;2.50;;;1.80;;
20865;SDS011;10593;48.398;10.698;2022-11-20T06:04:54;2.07;;;1.97;;
20865;SDS011;10593;48.398;10.698;2022-11-20T06:07:20;1.60;;;1.50;;
20865;SDS011;10593;48.398;10.698;2022-11-20T06:09:45;1.83;;;1.73;;
20865;SDS011;10593;48.398;10.698;2022-11-20T06:12:11;1.70;;;1.60;;
20865;SDS011;10593;48.398;10.698;2022-11-20T06:14:36;2.00;;;1.70;;
20865;SDS011;10593;48.398;10.698;2022-11-20T06:17:02;2.00;;;1.90;;
20865;SDS011;10593;48.398;10.698;2022-11-20T06:19:28;1.93;;;1.83;;
20865;SDS011;10593;48.398;10.698;2022-11-20T06:21:53;2.27;;;2.10;;
20865;SDS011;10593;48.398;10.698;2022-11-20T06:24:19;3.43;;;1.57;;
20865;SDS011;10593;48.398;10.698;2022-11-20T06:26:45;1.50;;;1.40;;
20865;SDS011;10593;48.398;10.698;2022-11-20T06:29:10;2.13;;;1.90;;
20865;SDS011;10593;48.398;10.698;2022-11-20T06:31:36;1.60;;;1.50;;
20865;SDS011;10593;48.398;10.698;2022-11-20T06:34:03;1.70;;;1.60;;
20865;SDS011;10593;48.398;10.698;2022-11-20T06:36:31;2.03;;;1.87;;
20865;SDS011;10593;48.398;10.698;2022-11-20T06:38:57;2.07;;;1.57;;
20865;SDS011;10593;48.398;10.698;2022-11-20T06:41:23;2.03;;;1.93;;
20865;SDS011;10593;48.398;10.698;2022-11-20T06:43:50;2.53;;;2.00;;
20865;SDS011;10593;48.398;10.698;2022-11-20T06:46:17;3.10;;;2.07;;
20865;SDS011;10593;48.398;10.698;2022-11-20T06:48:45;2.03;;;1.93;;
20865;SDS011;10593;48.398;10.698;2022-11-20T06:51:12;3.03;;;2.83;;
20865;SDS011;10593;48.398;10.698;2022-11-20T06:53:38;3.80;;;3.50;;
20865;SDS011;10593;48.398;10.698;2022-11-20T06:56:05;5.13;;;3.90;;
20865;SDS011;10593;48.398;10.698;2022-11-20T06:58:32;4.20;;;3.67;;
20865;SDS011;10593;48.398;10.698;2022-11-20T07:01:00;3.07;;;2.77;;
20865;SDS011;10593;48.398;10.698;2022-11-20T07:03:30;2.10;;;1.90;;
20865;SDS011;10593;48.398;10.698;2022-11-20T07:05:56;1.93;;;1.83;;
20865;SDS011;10593;48.398;10.698;2022-11-20T07:08:24;2.00;;;1.90;;
20865;SDS011;10593;48.398;10.698;2022-11-20T07:10:50;2.00;;;1.80;;
20865;SDS011;10593;48.398;10.698;2022-11-20T07:13:16;2.10;;;2.00;;
20865;SDS011;10593;48.398;10.698;2022-11-20T07:15:42;2.43;;;2.23;;
20865;SDS011;10593;48.398;10.698;2022-11-20T07:18:09;2.03;;;1.93;;
20865;SDS011;10593;48.398;10.698;2022-11-20T07:20:35;2.33;;;2.23;;
20865;SDS011;10593;48.398;10.698;2022-11-20T07:23:00;1.80;;;1.70;;
20865;SDS011;10593;48.398;10.698;2022-11-20T07:25:27;1.90;;;1.80;;
20865;SDS011;10593;48.398;10.698;2022-11-20T07:27:56;1.80;;;1.70;;
20865;SDS011;10593;48.398;10.698;2022-11-20T07:30:23;2.57;;;2.37;;
20865;SDS011;10593;48.398;10.698;2022-11-20T07:32:54;2.60;;;2.40;;
20865;SDS011;10593;48.398;10.698;2022-11-20T07:35:21;2.40;;;2.30;;
20865;SDS011;10593;48.398;10.698;2022-11-20T07:37:49;2.20;;;2.10;;
20865;SDS011;10593;48.398;10.698;2022-11-20T07:40:15;2.40;;;2.20;;
20865;SDS011;10593;48.398;10.698;2022-11-20T07:42:48;2.30;;;2.20;;
20865;SDS011;10593;48.398;10.698;2022-11-20T07:45:16;3.50;;;2.50;;
20865;SDS011;10593;48.398;10.698;2022-11-20T07:47:43;2.10;;;1.93;;
20865;SDS011;10593;48.398;10.698;2022-11-20T07:50:10;2.13;;;2.03;;
20865;SDS011;10593;48.398;10.698;2022-11-20T07:52:36;2.37;;;2.17;;
20865;SDS011;10593;48.398;10.698;2022-11-20T07:55:02;1.97;;;1.87;;
20865;SDS011;10593;48.398;10.698;2022-11-20T07:57:28;2.10;;;2.00;;
20865;SDS011;10593;48.398;10.698;2022-11-20T07:59:54;2.10;;;2.00;;
20865;SDS011;10593;48.398;10.698;2022-11-20T08:02:20;2.13;;;2.03;;
20865;SDS011;10593;48.398;10.698;2022-11-20T08:04:45;2.47;;;2.33;;
20865;SDS011;10593;48.398;10.698;2022-11-20T08:07:11;2.20;;;2.10;;
20865;SDS011;10593;48.398;10.698;2022-11-20T08:09:37;2.30;;;2.20;;
20865;SDS011;10593;48.398;10.698;2022-11-20T08:12:02;2.10;;;2.00;;
20865;SDS011;10593;48.398;10.698;2022-11-20T08:14:46;2.50;;;2.30;;
20865;SDS011;10593;48.398;10.698;2022-11-20T08:17:12;1.97;;;1.87;;
20865;SDS011;10593;48.398;10.698;2022-11-20T08:19:38;1.93;;;1.83;;
20865;SDS011;10593;48.398;10.698;2022-11-20T08:22:03;2.23;;;2.13;;
20865;SDS011;10593;48.398;10.698;2022-11-20T08:24:29;2.67;;;2.27;;
20865;SDS011;10593;48.398;10.698;2022-11-20T08:26:57;2.40;;;2.20;;
20865;SDS011;10593;48.398;10.698;2022-11-20T08:29:24;1.93;;;1.83;;
20865;SDS011;10593;48.398;10.698;2022-11-20T08:31:51;2.80;;;2.20;;
20865;SDS011;10593;48.398;10.698;2022-11-20T08:34:17;2.30;;;2.20;;
20865;SDS011;10593;48.398;10.698;2022-11-20T08:36:43;2.23;;;1.90;;
20865;SDS011;10593;48.398;10.698;2022-11-20T08:39:10;2.17;;;2.07;;
20865;SDS011;10593;48.398;10.698;2022-11-20T08:41:37;2.07;;;1.93;;
20865;SDS011;10593;48.398;10.698;2022-11-20T08:44:03;2.30;;;2.20;;
20865;SDS011;10593;48.398;10.698;2022-11-20T08:46:35;2.43;;;2.23;;
20865;SDS011;10593;48.398;10.698;2022-11-20T08:49:06;2.70;;;2.30;;
20865;SDS011;10593;48.398;10.698;2022-11-20T08:51:35;2.30;;;2.10;;
20865;SDS011;10593;48.398;10.698;2022-11-20T08:54:03;2.57;;;2.30;;
20865;SDS011;10593;48.398;10.698;2022-11-20T08:56:29;2.37;;;2.20;;
20865;SDS011;10593;48.398;10.698;2022-11-20T08:58:55;2.53;;;2.33;;
20865;SDS011;10593;48.398;10.698;2022-11-20T09:01:21;2.40;;;2.20;;
20865;SDS011;10593;48.398;10.698;2022-11-20T09:03:48;2.20;;;2.10;;
20865;SDS011;10593;48.398;10.698;2022-11-20T09:06:15;5.43;;;2.67;;
20865;SDS011;10593;48.398;10.698;2022-11-20T09:08:41;2.93;;;2.43;;
20865;SDS011;10593;48.398;10.698;2022-11-20T09:11:08;2.80;;;2.60;;
20865;SDS011;10593;48.398;10.698;2022-11-20T09:13:34;2.50;;;2.30;;
20865;SDS011;10593;48.398;10.698;2022-11-20T09:16:05;2.53;;;2.33;;
20865;SDS011;10593;48.398;10.698;2022-11-20T09:18:34;2.20;;;2.10;;
20865;SDS011;10593;48.398;10.698;2022-11-20T09:21:08;2.30;;;2.10;;
20865;SDS011;10593;48.398;10.698;2022-11-20T09:23:36;2.00;;;1.90;;
20865;SDS011;10593;48.398;10.698;2022-11-20T09:26:04;2.00;;;1.90;;
20865;SDS011;10593;48.398;10.698;2022-11-20T09:28:38;1.80;;;1.70;;
20865;SDS011;10593;48.398;10.698;2022-11-20T09:31:05;2.13;;;1.93;;
20865;SDS011;10593;48.398;10.698;2022-11-20T09:33:38;2.10;;;1.90;;
20865;SDS011;10593;48.398;10.698;2022-11-20T09:36:04;1.80;;;1.70;;
20865;SDS011;10593;48.398;10.698;2022-11-20T09:38:30;1.90;;;1.80;;
20865;SDS011;10593;48.398;10.698;2022-11-20T09:41:03;2.90;;;1.90;;
20865;SDS011;10593;48.398;10.698;2022-11-20T09:43:42;2.00;;;1.90;;
20865;SDS011;10593;48.398;10.698;2022-11-20T09:46:37;1.90;;;1.80;;
20865;SDS011;10593;48.398;10.698;2022-11-20T09:52:37;1.73;;;1.63;;
20865;SDS011;10593;48.398;10.698;2022-11-20T09:55:21;1.67;;;1.57;;
20865;SDS011;10593;48.398;10.698;2022-11-20T09:57:47;1.67;;;1.57;;
20865;SDS011;10593;48.398;10.698;2022-11-20T10:00:16;1.47;;;1.37;;
20865;SDS011;10593;48.398;10.698;2022-11-20T10:03:00;1.33;;;1.23;;
20865;SDS011;10593;48.398;10.698;2022-11-20T10:05:44;1.27;;;1.17;;
20865;SDS011;10593;48.398;10.698;2022-11-20T10:10:52;1.27;;;1.27;;
20865;SDS011;10593;48.398;10.698;2022-11-20T10:23:03;1.50;;;1.40;;
20865;SDS011;10593;48.398;10.698;2022-11-20T10:25:39;1.60;;;1.50;;
20865;SDS011;10593;48.398;10.698;2022-11-20T10:28:29;1.10;;;1.10;;
20865;SDS011;10593;48.398;10.698;2022-11-20T10:31:10;1.47;;;1.30;;
20865;SDS011;10593;48.398;10.698;2022-11-20T10:33:55;1.70;;;1.50;;
20865;SDS011;10593;48.398;10.698;2022-11-20T10:36:26;2.50;;;1.30;;
20865;SDS011;10593;48.398;10.698;2022-11-20T10:39:01;1.33;;;1.30;;
20865;SDS011;10593;48.398;10.698;2022-11-20T10:41:40;1.20;;;1.20;;
20865;SDS011;10593;48.398;10.698;2022-11-20T10:44:17;1.10;;;1.10;;
20865;SDS011;10593;48.398;10.698;2022-11-20T10:47:13;2.30;;;1.30;;
20865;SDS011;10593;48.398;10.698;2022-11-20T10:49:46;1.00;;;1.00;;
20865;SDS011;10593;48.398;10.698;2022-11-20T10:54:57;1.37;;;1.27;;
20865;SDS011;10593;48.398;10.698;2022-11-20T10:57:51;1.50;;;1.40;;
20865;SDS011;10593;48.398;10.698;2022-11-20T11:00:25;1.60;;;1.50;;
20865;SDS011;10593;48.398;10.698;2022-11-20T11:02:51;1.77;;;1.67;;
20865;SDS011;10593;48.398;10.698;2022-11-20T11:07:51;1.47;;;1.33;;
20865;SDS011;10593;48.398;10.698;2022-11-20T11:10:36;1.10;;;1.10;;
20865;SDS011;10593;48.398;10.698;2022-11-20T11:13:27;1.57;;;1.47;;
20865;SDS011;10593;48.398;10.698;2022-11-20T11:15:55;1.50;;;1.40;;
20865;SDS011;10593;48.398;10.698;2022-11-20T11:18:32;1.17;;;1.17;;
20865;SDS011;10593;48.398;10.698;2022-11-20T11:21:00;1.30;;;1.20;;
20865;SDS011;10593;48.398;10.698;2022-11-20T11:23:42;1.03;;;1.03;;
20865;SDS011;10593;48.398;10.698;2022-11-20T11:26:21;1.20;;;1.20;;
20865;SDS011;10593;48.398;10.698;2022-11-20T11:29:02;1.20;;;1.17;;
20865;SDS011;10593;48.398;10.698;2022-11-20T11:34:07;1.00;;;1.00;;
20865;SDS011;10593;48.398;10.698;2022-11-20T11:36:41;1.30;;;1.20;;
20865;SDS011;10593;48.398;10.698;2022-11-20T11:39:18;1.10;;;1.10;;
20865;SDS011;10593;48.398;10.698;2022-11-20T11:41:46;1.20;;;1.10;;
20865;SDS011;10593;48.398;10.698;2022-11-20T11:44:15;1.03;;;1.03;;
20865;SDS011;10593;48.398;10.698;2022-11-20T11:47:29;1.13;;;1.13;;
20865;SDS011;10593;48.398;10.698;2022-11-20T11:50:18;1.27;;;1.17;;
20865;SDS011;10593;48.398;10.698;2022-11-20T11:52:56;1.17;;;1.17;;
20865;SDS011;10593;48.398;10.698;2022-11-20T11:55:42;1.20;;;1.10;;
20865;SDS011;10593;48.398;10.698;2022-11-20T11:58:27;1.13;;;1.13;;
20865;SDS011;10593;48.398;10.698;2022-11-20T12:06:38;1.10;;;1.10;;
20865;SDS011;10593;48.398;10.698;2022-11-20T12:09:10;1.40;;;1.30;;
20865;SDS011;10593;48.398;10.698;2022-11-20T12:14:48;1.50;;;1.40;;
20865;SDS011;10593;48.398;10.698;2022-11-20T12:17:17;2.53;;;2.33;;
20865;SDS011;10593;48.398;10.698;2022-11-20T12:19:43;3.23;;;2.93;;
20865;SDS011;10593;48.398;10.698;2022-11-20T12:25:19;4.13;;;3.73;;
20865;SDS011;10593;48.398;10.698;2022-11-20T12:36:40;2.47;;;2.27;;
20865;SDS011;10593;48.398;10.698;2022-11-20T12:39:31;2.33;;;2.10;;
20865;SDS011;10593;48.398;10.698;2022-11-20T12:48:21;4.27;;;3.00;;
20865;SDS011;10593;48.398;10.698;2022-11-20T12:51:34;2.83;;;2.53;;
20865;SDS011;10593;48.398;10.698;2022-11-20T12:57:22;2.00;;;1.90;;
20865;SDS011;10593;48.398;10.698;2022-11-20T13:05:48;1.87;;;1.60;;
20865;SDS011;10593;48.398;10.698;2022-11-20T13:08:54;1.27;;;1.27;;
20865;SDS011;10593;48.398;10.698;2022-11-20T13:14:11;1.67;;;1.37;;
20865;SDS011;10593;48.398;10.698;2022-11-20T13:19:30;1.17;;;1.17;;
20865;SDS011;10593;48.398;10.698;2022-11-20T13:21:56;1.30;;;1.20;;
20865;SDS011;10593;48.398;10.698;2022-11-20T13:24:23;1.20;;;1.10;;
20865;SDS011;10593;48.398;10.698;2022-11-20T13:32:18;1.40;;;1.30;;
20865;SDS011;10593;48.398;10.698;2022-11-20T13:34:56;1.50;;;1.33;;
20865;SDS011;10593;48.398;10.698;2022-11-20T13:37:30;1.30;;;1.30;;
20865;SDS011;10593;48.398;10.698;2022-11-20T13:42:38;1.20;;;1.10;;
20865;SDS011;10593;48.398;10.698;2022-11-20T13:45:29;1.00;;;1.00;;
20865;SDS011;10593;48.398;10.698;2022-11-20T13:47:57;1.23;;;1.00;;
20865;SDS011;10593;48.398;10.698;2022-11-20T13:50:55;0.93;;;0.93;;
20865;SDS011;10593;48.398;10.698;2022-11-20T14:00:17;1.30;;;1.20;;
20865;SDS011;10593;48.398;10.698;2022-11-20T14:02:50;1.40;;;1.30;;
20865;SDS011;10593;48.398;10.698;2022-11-20T14:05:51;1.87;;;1.77;;
20865;SDS011;10593;48.398;10.698;2022-11-20T14:08:42;1.80;;;1.70;;
20865;SDS011;10593;48.398;10.698;2022-11-20T14:11:17;1.07;;;1.07;;
20865;SDS011;10593;48.398;10.698;2022-11-20T14:16:49;1.20;;;1.10;;
20865;SDS011;10593;48.398;10.698;2022-11-20T14:21:53;1.07;;;1.07;;
20865;SDS011;10593;48.398;10.698;2022-11-20T14:24:34;1.23;;;1.10;;
20865;SDS011;10593;48.398;10.698;2022-11-20T14:27:00;0.70;;;0.70;;
20865;SDS011;10593;48.398;10.698;2022-11-20T14:29:28;0.90;;;0.90;;
20865;SDS011;10593;48.398;10.698;2022-11-20T14:32:00;1.30;;;1.20;;
20865;SDS011;10593;48.398;10.698;2022-11-20T14:34:31;1.97;;;1.17;;
20865;SDS011;10593;48.398;10.698;2022-11-20T14:37:04;2.20;;;1.20;;
20865;SDS011;10593;48.398;10.698;2022-11-20T14:39:41;1.30;;;1.20;;
20865;SDS011;10593;48.398;10.698;2022-11-20T14:42:15;1.13;;;1.10;;
20865;SDS011;10593;48.398;10.698;2022-11-20T14:44:46;0.80;;;0.80;;
20865;SDS011;10593;48.398;10.698;2022-11-20T14:47:16;1.10;;;1.10;;
20865;SDS011;10593;48.398;10.698;2022-11-20T14:49:48;1.07;;;1.07;;
20865;SDS011;10593;48.398;10.698;2022-11-20T14:52:17;1.93;;;1.17;;
20865;SDS011;10593;48.398;10.698;2022-11-20T14:58:31;0.90;;;0.90;;
20865;SDS011;10593;48.398;10.698;2022-11-20T15:00:59;1.20;;;1.20;;
20865;SDS011;10593;48.398;10.698;2022-11-20T15:03:39;0.97;;;0.97;;
20865;SDS011;10593;48.398;10.698;2022-11-20T15:06:06;0.93;;;0.93;;
20865;SDS011;10593;48.398;10.698;2022-11-20T15:08:36;0.80;;;0.80;;
20865;SDS011;10593;48.398;10.698;2022-11-20T15:11:02;1.00;;;1.00;;
20865;SDS011;10593;48.398;10.698;2022-11-20T15:13:32;1.67;;;0.90;;
20865;SDS011;10593;48.398;10.698;2022-11-20T15:16:01;1.03;;;1.00;;
20865;SDS011;10593;48.398;10.698;2022-11-20T15:18:37;1.43;;;1.20;;
20865;SDS011;10593;48.398;10.698;2022-11-20T15:21:13;1.30;;;1.20;;
20865;SDS011;10593;48.398;10.698;2022-11-20T15:23:42;1.80;;;1.70;;
20865;SDS011;10593;48.398;10.698;2022-11-20T15:26:08;1.70;;;1.60;;
20865;SDS011;10593;48.398;10.698;2022-11-20T15:28:41;1.83;;;1.73;;
20865;SDS011;10593;48.398;10.698;2022-11-20T15:31:13;1.93;;;1.83;;
20865;SDS011;10593;48.398;10.698;2022-11-20T15:33:42;2.13;;;2.00;;
20865;SDS011;10593;48.398;10.698;2022-11-20T15:36:08;1.70;;;1.60;;
20865;SDS011;10593;48.398;10.698;2022-11-20T15:38:36;1.50;;;1.40;;
20865;SDS011;10593;48.398;10.698;2022-11-20T15:41:02;1.90;;;1.40;;
20865;SDS011;10593;48.398;10.698;2022-11-20T15:43:28;1.63;;;1.53;;
20865;SDS011;10593;48.398;10.698;2022-11-20T15:45:55;1.40;;;1.30;;
20865;SDS011;10593;48.398;10.698;2022-11-20T15:48:26;1.07;;;1.07;;
20865;SDS011;10593;48.398;10.698;2022-11-20T15:53:46;1.13;;;1.07;;
20865;SDS011;10593;48.398;10.698;2022-11-20T15:56:12;1.30;;;1.20;;
20865;SDS011;10593;48.398;10.698;2022-11-20T15:58:39;1.73;;;1.33;;
20865;SDS011;10593;48.398;10.698;2022-11-20T16:01:08;1.57;;;1.40;;
20865;SDS011;10593;48.398;10.698;2022-11-20T16:03:40;1.80;;;1.70;;
20865;SDS011;10593;48.398;10.698;2022-11-20T16:06:06;2.00;;;1.80;;
20865;SDS011;10593;48.398;10.698;2022-11-20T16:08:32;2.33;;;2.13;;
20865;SDS011;10593;48.398;10.698;2022-11-20T16:10:58;2.27;;;2.07;;
20865;SDS011;10593;48.398;10.698;2022-11-20T16:13:24;2.77;;;2.30;;
20865;SDS011;10593;48.398;10.698;2022-11-20T16:16:14;1.93;;;1.80;;
20865;SDS011;10593;48.398;10.698;2022-11-20T16:18:55;2.07;;;1.87;;
20865;SDS011;10593;48.398;10.698;2022-11-20T16:21:21;2.00;;;1.90;;
20865;SDS011;10593;48.398;10.698;2022-11-20T16:23:55;1.87;;;1.77;;
20865;SDS011;10593;48.398;10.698;2022-11-20T16:26:29;1.37;;;1.30;;
20865;SDS011;10593;48.398;10.698;2022-11-20T16:28:55;1.40;;;1.30;;
20865;SDS011;10593;48.398;10.698;2022-11-20T16:31:23;1.53;;;1.43;;
20865;SDS011;10593;48.398;10.698;2022-11-20T16:33:49;1.53;;;1.43;;